Cuntis, Spain
Current Conditions -  °F | °C
As of 3:00 AM on Sunday 26 Oct 2014 (Local Time) from LEST Reporting Station
Clear Clear  
Wind Chill: 63°   Ceiling: Unl
Heat Index: 63°   Visibility: 6mi
Dew Point: 55°   Wind: 3mph
Humidity: 77%   Direction: 120°ESE
Pressure: 30.15"   Gusts: NA
Location:  42.63°N, 8.56°W
Report Text: LEST 260100Z 12003KT CAVOK 17/13 Q1021 NOSIG
Loading
Personal Weather Stations






























Interactive Weather Map
Tropical Storm Tracking
New forecast layout! Learn more

10-Day Weather Forecast

Advertisements
Track Severe Weather on mobile